Time;durP1;ratioP1;P1;durP2;ratioP2;P2;SDS_P1;SDS_P2;PMS_P1;PMS_P2;Temp;Humidity;BMP_temperature;BMP_pressure;BME280_temperature;BME280_humidity;BME280_pressure;Samples;Min_cycle;Max_cycle;Signal;HPM_P1;HPM_P2
2023/06/14 00:00:20;;;;;;;7.65;1.83;;;21.30;47.90;;;;;;5055168;28;20078;-80
2023/06/14 00:02:46;;;;;;;7.32;1.77;;;21.30;48.10;;;;;;5054986;28;20029;-81
2023/06/14 00:05:12;;;;;;;6.07;2.15;;;21.20;48.20;;;;;;5055110;28;20065;-80
2023/06/14 00:07:42;;;;;;;4.88;1.50;;;21.10;48.40;;;;;;5053770;28;20466;-77
2023/06/14 00:10:08;;;;;;;8.10;1.65;;;21.10;48.60;;;;;;5054683;28;20045;-81
2023/06/14 00:12:35;;;;;;;4.82;1.75;;;21.10;48.50;;;;;;5053586;28;20405;-81
2023/06/14 00:15:03;;;;;;;5.65;1.75;;;21.00;49.00;;;;;;5053642;28;20090;-80
2023/06/14 00:17:32;;;;;;;5.13;2.00;;;21.00;49.10;;;;;;5054996;28;20044;-80
2023/06/14 00:19:58;;;;;;;4.03;1.50;;;20.90;48.80;;;;;;5054973;28;20159;-77
2023/06/14 00:22:25;;;;;;;7.05;1.52;;;20.90;49.10;;;;;;5036803;28;20064;-81
2023/06/14 00:24:51;;;;;;;7.47;2.22;;;20.90;49.20;;;;;;5053401;28;20052;-77
2023/06/14 00:27:17;;;;;;;5.63;2.05;;;20.80;49.30;;;;;;5036953;28;20116;-80
2023/06/14 00:29:43;;;;;;;5.95;1.50;;;20.80;49.40;;;;;;5053031;28;20124;-80
2023/06/14 00:32:08;;;;;;;4.43;1.88;;;20.80;49.60;;;;;;5036710;28;20033;-80
2023/06/14 00:34:34;;;;;;;5.28;1.85;;;20.70;49.50;;;;;;5053213;28;20028;-81
2023/06/14 00:37:00;;;;;;;9.20;2.08;;;20.70;49.60;;;;;;5053180;28;20032;-77
2023/06/14 00:39:26;;;;;;;6.93;2.38;;;20.60;49.90;;;;;;5053375;28;20063;-77
2023/06/14 00:41:51;;;;;;;5.15;1.80;;;20.60;50.20;;;;;;5054419;28;20064;-82
2023/06/14 00:44:17;;;;;;;5.82;1.70;;;20.60;50.10;;;;;;5054250;28;20021;-77
2023/06/14 00:46:44;;;;;;;5.38;1.88;;;20.50;50.20;;;;;;5036502;28;20060;-82
2023/06/14 00:49:12;;;;;;;3.40;1.50;;;20.50;50.20;;;;;;5054332;28;20039;-81
2023/06/14 00:51:37;;;;;;;5.97;1.63;;;20.50;50.30;;;;;;5053254;28;20397;-81
2023/06/14 00:54:03;;;;;;;7.75;1.58;;;20.40;50.30;;;;;;5052777;28;20037;-77
2023/06/14 00:56:29;;;;;;;6.20;1.65;;;20.40;50.50;;;;;;5036086;28;20029;-81
2023/06/14 00:58:56;;;;;;;5.47;1.85;;;20.40;50.70;;;;;;5052793;28;20052;-77
2023/06/14 01:01:22;;;;;;;5.88;1.60;;;20.30;50.70;;;;;;5053869;28;20395;-81
2023/06/14 01:03:47;;;;;;;6.90;1.60;;;20.30;50.50;;;;;;5053946;28;20024;-77
2023/06/14 01:06:29;;;;;;;4.65;1.65;;;20.30;50.70;;;;;;5053911;28;20531;-77
2023/06/14 01:09:18;;;;;;;4.57;1.52;;;20.20;50.60;;;;;;5052436;28;20086;-76
2023/06/14 01:11:56;;;;;;;5.45;1.50;;;20.20;50.90;;;;;;5052239;28;20040;-81
2023/06/14 01:14:23;;;;;;;4.68;1.50;;;20.10;50.90;;;;;;5053976;28;20029;-76
2023/06/14 01:16:52;;;;;;;5.70;1.30;;;20.10;51.00;;;;;;5052632;28;20029;-76
2023/06/14 01:19:22;;;;;;;4.68;1.13;;;20.10;51.00;;;;;;5052580;28;20136;-81
2023/06/14 01:21:50;;;;;;;6.45;1.63;;;20.10;51.10;;;;;;5052296;28;20067;-79
2023/06/14 01:24:19;;;;;;;4.18;1.95;;;20.10;51.50;;;;;;5036040;28;20124;-76
2023/06/14 01:26:51;;;;;;;6.53;1.65;;;20.00;51.40;;;;;;5053482;28;20120;-80
2023/06/14 01:29:17;;;;;;;6.80;1.83;;;20.00;51.50;;;;;;5052237;28;20017;-76
2023/06/14 01:31:43;;;;;;;6.32;1.67;;;19.90;51.50;;;;;;5053502;28;20029;-80
2023/06/14 01:34:09;;;;;;;4.40;1.45;;;19.90;51.60;;;;;;5052309;28;20033;-80
2023/06/14 01:36:40;;;;;;;7.03;1.48;;;19.90;51.70;;;;;;5053342;28;20036;-80
2023/06/14 01:39:06;;;;;;;4.22;1.38;;;19.90;51.80;;;;;;5052125;28;20052;-80
2023/06/14 01:41:32;;;;;;;4.88;1.80;;;19.80;51.70;;;;;;5052317;28;20033;-81
2023/06/14 01:43:58;;;;;;;4.88;1.67;;;19.80;51.70;;;;;;5053259;28;20032;-76
2023/06/14 01:46:25;;;;;;;6.95;1.80;;;19.80;51.90;;;;;;5053302;28;20480;-76
2023/06/14 01:48:51;;;;;;;4.25;1.30;;;19.80;51.90;;;;;;5053169;28;20053;-80
2023/06/14 01:51:16;;;;;;;5.78;1.65;;;19.70;51.90;;;;;;5053269;28;20024;-76
2023/06/14 01:53:42;;;;;;;5.13;1.50;;;19.70;52.10;;;;;;5035329;28;20039;-80
2023/06/14 01:56:07;;;;;;;9.57;1.65;;;19.70;52.20;;;;;;5052247;28;20040;-76
2023/06/14 01:58:33;;;;;;;4.78;1.50;;;19.70;52.30;;;;;;5035491;28;20363;-81
2023/06/14 02:01:00;;;;;;;8.55;1.58;;;19.60;52.30;;;;;;5051834;28;20036;-76
2023/06/14 02:03:26;;;;;;;6.95;1.70;;;19.60;52.40;;;;;;5019242;28;20029;-77
2023/06/14 02:05:52;;;;;;;5.80;1.73;;;19.60;52.70;;;;;;5053003;28;20082;-77
2023/06/14 02:08:17;;;;;;;4.28;1.50;;;19.60;52.80;;;;;;5035218;28;20478;-80
2023/06/14 02:10:43;;;;;;;3.72;1.52;;;19.50;52.90;;;;;;5053050;28;20449;-76
2023/06/14 02:13:09;;;;;;;5.72;1.50;;;19.50;53.00;;;;;;5053067;28;20057;-77
2023/06/14 02:15:35;;;;;;;6.57;1.40;;;19.50;53.00;;;;;;5035251;28;20098;-77
2023/06/14 02:18:04;;;;;;;5.68;1.50;;;19.40;53.10;;;;;;5053059;28;20021;-76
2023/06/14 02:20:30;;;;;;;5.88;1.75;;;19.40;52.90;;;;;;5051569;28;20074;-76
2023/06/14 02:22:58;;;;;;;6.05;1.50;;;19.40;53.20;;;;;;5053176;28;20017;-76
2023/06/14 02:25:23;;;;;;;4.60;1.58;;;19.40;53.40;;;;;;5052789;28;20021;-76
2023/06/14 02:27:49;;;;;;;6.22;1.98;;;19.30;53.40;;;;;;5051598;28;20018;-76
2023/06/14 02:30:15;;;;;;;5.30;1.55;;;19.30;53.50;;;;;;5051753;28;20444;-80
2023/06/14 02:32:42;;;;;;;3.30;1.63;;;19.30;53.70;;;;;;5053046;28;20480;-76
2023/06/14 02:35:08;;;;;;;3.83;1.20;;;19.30;53.80;;;;;;5053272;28;20056;-80
2023/06/14 02:37:35;;;;;;;3.13;1.30;;;19.20;53.80;;;;;;5051603;28;20053;-76
2023/06/14 02:40:00;;;;;;;4.10;1.30;;;19.20;54.10;;;;;;5035143;28;20037;-76
2023/06/14 02:42:26;;;;;;;5.10;1.38;;;19.10;54.10;;;;;;5052737;28;20116;-76
2023/06/14 02:44:51;;;;;;;3.75;1.63;;;19.10;54.30;;;;;;5034936;28;20021;-76
2023/06/14 02:47:20;;;;;;;5.63;1.30;;;19.10;54.10;;;;;;5052667;28;20037;-76
2023/06/14 02:49:48;;;;;;;3.65;1.40;;;19.10;54.30;;;;;;5051250;28;20112;-76
2023/06/14 02:52:14;;;;;;;4.60;1.42;;;19.00;54.30;;;;;;5051360;28;20106;-76
2023/06/14 02:54:41;;;;;;;6.78;1.60;;;19.00;54.40;;;;;;5056244;28;20044;-76
2023/06/14 02:57:07;;;;;;;7.35;1.70;;;19.00;54.40;;;;;;5054800;28;20448;-80
2023/06/14 02:59:33;;;;;;;6.40;2.00;;;19.00;54.30;;;;;;5054752;28;20432;-76
2023/06/14 03:01:59;;;;;;;7.35;1.55;;;18.90;54.40;;;;;;5054829;28;20029;-79
2023/06/14 03:04:25;;;;;;;3.58;1.50;;;18.90;54.50;;;;;;5038568;28;20032;-76
2023/06/14 03:06:53;;;;;;;4.82;1.30;;;18.90;54.70;;;;;;5038474;28;20049;-76
2023/06/14 03:09:19;;;;;;;5.32;1.60;;;18.80;54.60;;;;;;5054823;28;20028;-76
2023/06/14 03:11:45;;;;;;;7.95;1.50;;;18.80;54.90;;;;;;5055886;28;20049;-76
2023/06/14 03:14:13;;;;;;;5.78;1.70;;;18.80;54.90;;;;;;5055956;28;20112;-80
2023/06/14 03:16:38;;;;;;;3.20;1.40;;;18.80;55.20;;;;;;5055062;28;20025;-80
2023/06/14 03:19:04;;;;;;;3.47;1.33;;;18.80;55.20;;;;;;5055953;28;20505;-81
2023/06/14 03:21:30;;;;;;;5.88;1.40;;;18.70;55.40;;;;;;5055662;28;20108;-80
2023/06/14 03:23:55;;;;;;;3.05;1.48;;;18.70;55.30;;;;;;5054811;28;20052;-80
2023/06/14 03:26:22;;;;;;;4.68;1.55;;;18.70;55.50;;;;;;5055795;28;20513;-81
2023/06/14 03:28:51;;;;;;;5.72;1.35;;;18.70;55.60;;;;;;5038116;28;20350;-80
2023/06/14 03:31:16;;;;;;;4.20;1.23;;;18.70;55.70;;;;;;5056004;28;20037;-80
2023/06/14 03:33:42;;;;;;;5.68;1.33;;;18.60;55.70;;;;;;5054585;28;20037;-80
2023/06/14 03:36:08;;;;;;;2.60;1.08;;;18.60;55.70;;;;;;5055584;28;20033;-80
2023/06/14 03:38:34;;;;;;;4.47;1.10;;;18.60;55.80;;;;;;5055447;28;20031;-80
2023/06/14 03:41:00;;;;;;;5.68;1.85;;;18.60;55.70;;;;;;5055452;28;20064;-76
2023/06/14 03:43:26;;;;;;;5.25;1.70;;;18.60;55.90;;;;;;5055591;28;20064;-76
2023/06/14 03:45:52;;;;;;;3.95;1.75;;;18.60;56.00;;;;;;5054279;28;20021;-76
2023/06/14 03:48:18;;;;;;;3.30;1.55;;;18.50;56.00;;;;;;5054118;28;20036;-76
2023/06/14 03:50:44;;;;;;;6.28;1.55;;;18.50;56.30;;;;;;5055742;28;20078;-79
2023/06/14 03:53:10;;;;;;;3.13;1.33;;;18.50;56.30;;;;;;5055489;28;20032;-76
2023/06/14 03:55:37;;;;;;;2.83;1.10;;;18.50;56.40;;;;;;5055293;28;20037;-76
2023/06/14 03:58:03;;;;;;;4.28;1.60;;;18.50;56.50;;;;;;5055167;28;20462;-75
2023/06/14 04:00:29;;;;;;;7.10;1.40;;;18.50;56.50;;;;;;5053927;28;20032;-80
2023/06/14 04:02:54;;;;;;;2.80;1.08;;;18.40;56.50;;;;;;5053829;28;20083;-76
2023/06/14 04:05:20;;;;;;;6.55;1.52;;;18.50;56.80;;;;;;5052813;28;20062;-81
2023/06/14 04:07:48;;;;;;;3.05;1.42;;;18.50;56.70;;;;;;5054994;28;20029;-75
2023/06/14 04:10:15;;;;;;;6.40;1.40;;;18.40;56.70;;;;;;5054895;28;20496;-76
2023/06/14 04:12:42;;;;;;;6.78;1.70;;;18.40;56.90;;;;;;5054974;28;20083;-76
2023/06/14 04:15:08;;;;;;;5.43;1.42;;;18.50;57.00;;;;;;5054812;28;20021;-76
2023/06/14 04:17:34;;;;;;;6.20;1.55;;;18.40;56.90;;;;;;5036905;28;20025;-76
2023/06/14 04:20:01;;;;;;;4.63;1.63;;;18.40;57.10;;;;;;5054684;28;20474;-76
2023/06/14 04:22:30;;;;;;;3.40;1.30;;;18.40;57.00;;;;;;5054655;28;20036;-80
2023/06/14 04:24:56;;;;;;;4.03;1.27;;;18.40;57.10;;;;;;5054760;28;20051;-80
2023/06/14 04:27:26;;;;;;;4.43;1.20;;;18.40;57.30;;;;;;5054529;28;20033;-81
2023/06/14 04:29:56;;;;;;;4.40;1.42;;;18.40;57.90;;;;;;5054585;28;20025;-76
2023/06/14 04:32:26;;;;;;;4.25;1.27;;;18.40;57.30;;;;;;5054446;28;20032;-77
2023/06/14 04:34:56;;;;;;;4.20;1.42;;;18.40;57.40;;;;;;5054490;28;20082;-81
2023/06/14 04:37:22;;;;;;;3.80;1.70;;;18.40;57.40;;;;;;5054370;28;20496;-80
2023/06/14 04:39:51;;;;;;;2.95;1.20;;;18.40;57.50;;;;;;5041474;28;20516;-80
2023/06/14 04:42:20;;;;;;;4.25;1.35;;;18.40;57.50;;;;;;5040889;28;20036;-80
2023/06/14 04:44:47;;;;;;;7.63;1.60;;;18.40;57.60;;;;;;5048554;28;20036;-79
2023/06/14 04:47:14;;;;;;;6.53;1.58;;;18.50;57.50;;;;;;5037613;28;20536;-80
2023/06/14 04:49:40;;;;;;;6.43;1.67;;;18.50;57.50;;;;;;5048833;28;20037;-81
2023/06/14 04:52:07;;;;;;;6.03;1.52;;;18.40;57.60;;;;;;5032904;28;20047;-81
2023/06/14 04:54:33;;;;;;;5.28;1.48;;;18.50;58.10;;;;;;5031766;28;20114;-81
2023/06/14 04:56:59;;;;;;;5.30;1.63;;;18.50;57.80;;;;;;5033502;28;20053;-76
2023/06/14 04:59:25;;;;;;;5.53;1.42;;;18.50;57.80;;;;;;5035607;28;20053;-76
2023/06/14 05:01:51;;;;;;;3.45;1.38;;;18.50;57.70;;;;;;5031092;28;20017;-76
2023/06/14 05:04:21;;;;;;;5.03;1.55;;;18.50;57.70;;;;;;5030756;28;20037;-80
2023/06/14 05:06:49;;;;;;;4.20;1.63;;;18.50;57.70;;;;;;5032416;28;20083;-79
2023/06/14 05:09:16;;;;;;;5.03;1.85;;;18.50;57.70;;;;;;5032563;28;20109;-84
2023/06/14 05:11:43;;;;;;;4.38;1.40;;;18.50;58.00;;;;;;5033594;28;20516;-80
2023/06/14 05:14:10;;;;;;;4.35;1.45;;;18.60;57.90;;;;;;5016119;28;20125;-79
2023/06/14 05:16:36;;;;;;;11.13;2.42;;;18.60;57.80;;;;;;5033378;28;20045;-79
2023/06/14 05:19:04;;;;;;;9.27;2.20;;;18.60;57.80;;;;;;5033692;28;20025;-79
2023/06/14 05:21:30;;;;;;;10.45;1.77;;;18.60;57.80;;;;;;5032155;28;20018;-80
2023/06/14 05:23:56;;;;;;;6.13;1.48;;;18.60;57.90;;;;;;5032487;28;20466;-79
2023/06/14 05:26:23;;;;;;;5.40;1.77;;;18.60;57.90;;;;;;5032516;28;20104;-79
2023/06/14 05:28:50;;;;;;;4.50;1.33;;;18.60;57.70;;;;;;5033508;28;20021;-76
2023/06/14 05:31:15;;;;;;;4.32;1.58;;;18.60;57.70;;;;;;5032610;28;20056;-81
2023/06/14 05:33:41;;;;;;;5.93;1.85;;;18.70;57.60;;;;;;5032486;28;20037;-81
2023/06/14 05:36:07;;;;;;;5.40;1.90;;;18.70;57.70;;;;;;5033526;28;20107;-82
2023/06/14 05:38:32;;;;;;;6.78;1.67;;;18.60;57.80;;;;;;5016011;28;20115;-79
2023/06/14 05:40:59;;;;;;;6.50;1.40;;;18.70;58.00;;;;;;5033416;28;20482;-82
2023/06/14 05:43:25;;;;;;;6.50;1.58;;;18.70;57.90;;;;;;5032172;28;20027;-80
2023/06/14 05:45:50;;;;;;;4.88;1.23;;;18.70;57.80;;;;;;5033365;28;20109;-75
2023/06/14 05:48:16;;;;;;;6.13;1.35;;;18.70;57.80;;;;;;5032085;28;20492;-80
2023/06/14 05:50:41;;;;;;;4.03;1.45;;;18.70;57.90;;;;;;5033200;28;20029;-77
2023/06/14 05:53:07;;;;;;;5.75;1.90;;;18.80;57.80;;;;;;5015346;28;20117;-80
2023/06/14 05:55:33;;;;;;;7.80;1.80;;;18.80;57.90;;;;;;5032081;28;20032;-80
2023/06/14 05:57:58;;;;;;;9.05;1.67;;;18.80;57.90;;;;;;5031824;28;20034;-78
2023/06/14 06:00:24;;;;;;;3.97;1.20;;;18.80;57.80;;;;;;5023964;28;20041;-77
2023/06/14 06:02:49;;;;;;;7.40;1.33;;;18.90;58.00;;;;;;5026429;28;20021;-77
2023/06/14 06:05:15;;;;;;;6.95;1.90;;;18.90;57.90;;;;;;5040921;28;20493;-76
2023/06/14 06:07:41;;;;;;;5.13;1.58;;;18.90;57.90;;;;;;5043517;28;20025;-80
2023/06/14 06:10:08;;;;;;;6.15;1.60;;;18.90;58.30;;;;;;5049107;28;20045;-76
2023/06/14 06:12:33;;;;;;;5.72;1.50;;;19.00;57.70;;;;;;5051625;28;20041;-80
2023/06/14 06:14:59;;;;;;;7.25;1.95;;;19.00;57.70;;;;;;5051496;28;20036;-77
2023/06/14 06:17:26;;;;;;;6.78;1.83;;;19.10;57.90;;;;;;5051548;28;20041;-76
2023/06/14 06:19:52;;;;;;;9.00;1.88;;;19.10;57.90;;;;;;5051407;28;20021;-77
2023/06/14 06:22:17;;;;;;;6.43;1.70;;;19.10;58.00;;;;;;5051307;28;20035;-76
2023/06/14 06:24:43;;;;;;;4.40;1.50;;;19.20;58.00;;;;;;5034674;28;20032;-77
2023/06/14 06:27:09;;;;;;;9.55;1.77;;;19.20;57.90;;;;;;5044544;28;20492;-76
2023/06/14 06:29:35;;;;;;;6.95;1.75;;;19.30;57.90;;;;;;5035631;28;20056;-78
2023/06/14 06:32:01;;;;;;;5.82;1.52;;;19.30;57.80;;;;;;5002602;28;20040;-76
2023/06/14 06:34:27;;;;;;;4.45;1.33;;;19.30;57.70;;;;;;5035657;28;20030;-81
2023/06/14 06:36:53;;;;;;;5.20;1.23;;;19.40;57.60;;;;;;5035234;28;20117;-80
2023/06/14 06:39:18;;;;;;;5.22;1.25;;;19.40;57.70;;;;;;5036551;28;20045;-77
2023/06/14 06:41:44;;;;;;;5.28;1.13;;;19.50;57.60;;;;;;5035305;28;20032;-76
2023/06/14 06:44:10;;;;;;;4.97;1.52;;;19.60;57.80;;;;;;5036607;28;20038;-76
2023/06/14 06:46:39;;;;;;;6.35;1.90;;;19.60;57.60;;;;;;5036624;28;20022;-77
2023/06/14 06:49:06;;;;;;;4.30;1.73;;;19.70;57.70;;;;;;5035137;28;20026;-77
2023/06/14 06:51:31;;;;;;;5.50;2.15;;;19.70;57.60;;;;;;5035363;28;20060;-77
2023/06/14 06:53:58;;;;;;;4.88;1.63;;;19.80;57.60;;;;;;5018836;28;20033;-81
2023/06/14 06:56:24;;;;;;;8.75;1.65;;;19.80;57.40;;;;;;5034963;28;20033;-76
2023/06/14 06:58:50;;;;;;;4.60;1.52;;;19.90;57.20;;;;;;5036195;28;20026;-76
2023/06/14 07:01:16;;;;;;;5.18;1.63;;;19.90;57.00;;;;;;5034882;28;20457;-77
2023/06/14 07:03:43;;;;;;;2.67;1.40;;;20.00;57.20;;;;;;5034383;28;20381;-76
2023/06/14 07:06:08;;;;;;;5.30;1.00;;;20.00;56.90;;;;;;5034203;28;20022;-77
2023/06/14 07:08:35;;;;;;;5.45;1.65;;;20.00;56.70;;;;;;5034095;28;20038;-81
2023/06/14 07:11:02;;;;;;;2.75;1.52;;;20.10;56.70;;;;;;5032937;28;20494;-77
2023/06/14 07:13:27;;;;;;;4.35;1.30;;;20.10;56.40;;;;;;5034846;28;20041;-82
2023/06/14 07:15:58;;;;;;;5.68;1.40;;;20.20;56.30;;;;;;5018350;28;20470;-80
2023/06/14 07:18:24;;;;;;;8.85;1.70;;;20.20;56.20;;;;;;5031065;28;20091;-76
2023/06/14 07:20:50;;;;;;;3.75;1.50;;;20.20;56.10;;;;;;5034477;28;20026;-83
2023/06/14 07:23:16;;;;;;;4.50;1.33;;;20.30;56.10;;;;;;5035819;28;20033;-81
2023/06/14 07:25:41;;;;;;;3.65;1.25;;;20.40;56.00;;;;;;5035905;28;20022;-82
2023/06/14 07:28:07;;;;;;;6.93;1.20;;;20.40;55.90;;;;;;5034533;28;20033;-81
2023/06/14 07:30:33;;;;;;;6.10;1.20;;;20.40;55.70;;;;;;5035719;28;20108;-77
2023/06/14 07:32:58;;;;;;;4.35;1.02;;;20.50;55.50;;;;;;5033461;28;20044;-76
2023/06/14 07:35:24;;;;;;;3.67;1.30;;;20.60;55.50;;;;;;5049149;28;20075;-77
2023/06/14 07:37:49;;;;;;;5.63;1.17;;;20.60;55.50;;;;;;5034095;28;20112;-81
2023/06/14 07:40:15;;;;;;;3.55;1.42;;;20.60;55.30;;;;;;5034159;28;20040;-76
2023/06/14 07:42:41;;;;;;;6.10;1.42;;;20.70;55.10;;;;;;5035314;28;20390;-82
2023/06/14 07:45:07;;;;;;;7.63;1.40;;;20.70;55.00;;;;;;5034757;28;20028;-77
2023/06/14 07:47:33;;;;;;;6.32;1.27;;;20.80;55.00;;;;;;5050741;28;20025;-77
2023/06/14 07:49:59;;;;;;;5.40;1.10;;;20.80;54.80;;;;;;5034206;28;20025;-77
2023/06/14 07:52:25;;;;;;;3.42;0.95;;;20.90;54.80;;;;;;5035304;28;20087;-81
2023/06/14 07:54:51;;;;;;;3.90;0.90;;;20.90;54.50;;;;;;5035325;28;20033;-76
2023/06/14 07:57:17;;;;;;;3.60;0.90;;;21.00;54.20;;;;;;5038348;28;20032;-77
2023/06/14 07:59:42;;;;;;;3.38;0.80;;;21.10;54.20;;;;;;5017441;28;20030;-76
2023/06/14 08:02:08;;;;;;;2.80;0.95;;;21.20;54.80;;;;;;5033772;28;20470;-83
2023/06/14 08:04:34;;;;;;;7.70;1.30;;;21.20;53.90;;;;;;5034121;28;20041;-82
2023/06/14 08:07:00;;;;;;;5.88;0.90;;;21.20;53.80;;;;;;5035298;28;20072;-82
2023/06/14 08:09:28;;;;;;;2.15;0.60;;;21.30;53.70;;;;;;5035009;28;20033;-82
2023/06/14 08:11:54;;;;;;;2.17;0.70;;;21.40;53.60;;;;;;5033639;28;20107;-81
2023/06/14 08:14:19;;;;;;;1.67;0.70;;;21.40;53.00;;;;;;5033910;28;20033;-76
2023/06/14 08:16:45;;;;;;;4.70;0.65;;;21.50;52.80;;;;;;5033598;28;20461;-83
2023/06/14 08:19:11;;;;;;;2.17;0.65;;;21.50;52.50;;;;;;5033768;28;20493;-77
2023/06/14 08:21:37;;;;;;;3.13;0.80;;;21.60;52.40;;;;;;5033224;28;20029;-77
2023/06/14 08:24:03;;;;;;;3.55;1.00;;;21.60;51.90;;;;;;5050492;28;20021;-79
2023/06/14 08:26:30;;;;;;;3.55;0.80;;;21.70;51.50;;;;;;5035592;28;20029;-79
2023/06/14 08:28:55;;;;;;;5.25;0.70;;;21.80;51.20;;;;;;5052629;28;20028;-80
2023/06/14 08:31:22;;;;;;;1.17;0.60;;;21.80;51.10;;;;;;5054599;28;20543;-75
2023/06/14 08:33:47;;;;;;;3.80;0.93;;;21.90;50.70;;;;;;5053231;28;20029;-75
2023/06/14 08:36:13;;;;;;;5.60;0.90;;;21.90;50.50;;;;;;5054347;28;20048;-78
2023/06/14 08:38:39;;;;;;;2.00;0.77;;;22.00;50.50;;;;;;5054633;28;20381;-78
2023/06/14 08:41:06;;;;;;;1.80;0.65;;;22.00;50.50;;;;;;5053456;28;20473;-83
2023/06/14 08:43:32;;;;;;;3.33;0.90;;;22.10;50.70;;;;;;5053430;28;20029;-80
2023/06/14 08:46:03;;;;;;;4.05;0.70;;;22.10;50.90;;;;;;5054279;28;20025;-80
2023/06/14 08:48:32;;;;;;;2.50;0.80;;;22.20;50.60;;;;;;5054279;28;20470;-81
2023/06/14 08:51:03;;;;;;;5.05;0.80;;;22.20;50.40;;;;;;5053483;28;20040;-80
2023/06/14 08:53:31;;;;;;;5.15;1.25;;;22.30;50.30;;;;;;5054062;28;20036;-81
2023/06/14 08:56:01;;;;;;;2.88;0.90;;;22.40;49.70;;;;;;5052807;28;20108;-76
2023/06/14 08:58:31;;;;;;;5.03;1.10;;;22.40;49.10;;;;;;5054165;28;20029;-77
2023/06/14 09:00:57;;;;;;;5.00;0.90;;;22.50;49.00;;;;;;5052561;28;20060;-77
2023/06/14 09:03:29;;;;;;;3.03;1.02;;;22.50;48.90;;;;;;5053358;28;20044;-76
2023/06/14 09:05:56;;;;;;;1.60;0.70;;;22.60;48.90;;;;;;5052711;28;20025;-78
2023/06/14 09:08:23;;;;;;;2.97;0.82;;;22.70;48.70;;;;;;5036092;28;20124;-75
2023/06/14 09:10:49;;;;;;;2.45;0.93;;;22.80;48.70;;;;;;5052166;28;20139;-74
2023/06/14 09:13:16;;;;;;;5.03;1.10;;;22.80;48.70;;;;;;5052266;28;20039;-75
2023/06/14 09:15:41;;;;;;;4.20;0.88;;;22.90;48.80;;;;;;5053587;28;20103;-77
2023/06/14 09:18:07;;;;;;;2.33;0.98;;;22.90;48.60;;;;;;5035577;28;20156;-82
2023/06/14 09:20:33;;;;;;;3.70;0.93;;;23.00;48.30;;;;;;5052528;28;20033;-81
2023/06/14 09:23:00;;;;;;;2.75;0.85;;;23.10;48.20;;;;;;5053535;28;20543;-83
2023/06/14 09:25:27;;;;;;;2.45;0.77;;;23.20;48.20;;;;;;5053537;28;20055;-84
2023/06/14 09:27:53;;;;;;;2.15;0.98;;;23.30;48.00;;;;;;5052342;28;20485;-76
2023/06/14 09:30:21;;;;;;;3.30;0.80;;;23.30;48.00;;;;;;5052066;28;20531;-77
2023/06/14 09:32:46;;;;;;;2.63;0.93;;;23.40;48.00;;;;;;5052036;28;20552;-81
2023/06/14 09:35:17;;;;;;;2.47;0.70;;;23.50;47.80;;;;;;5053325;28;20108;-83
2023/06/14 09:37:42;;;;;;;3.35;0.70;;;23.50;47.40;;;;;;5052219;28;20116;-82
2023/06/14 09:40:09;;;;;;;1.88;0.65;;;23.50;47.40;;;;;;5052322;28;20112;-80
2023/06/14 09:42:36;;;;;;;2.22;0.75;;;23.60;47.50;;;;;;5052543;28;20067;-80
2023/06/14 09:45:03;;;;;;;2.13;0.70;;;23.60;47.60;;;;;;5052113;28;20067;-77
2023/06/14 09:47:29;;;;;;;1.88;0.60;;;23.60;48.10;;;;;;5053050;28;20025;-75
2023/06/14 09:49:55;;;;;;;2.72;0.60;;;23.70;47.50;;;;;;5051945;28;20028;-76
2023/06/14 09:52:21;;;;;;;1.92;0.75;;;23.70;47.40;;;;;;5052009;28;20037;-76
2023/06/14 09:54:51;;;;;;;2.35;0.80;;;23.80;47.60;;;;;;5051972;28;20037;-76
2023/06/14 09:57:21;;;;;;;4.15;0.75;;;23.80;47.70;;;;;;5045216;28;20029;-76
2023/06/14 09:59:50;;;;;;;1.90;0.68;;;23.80;47.30;;;;;;5038433;28;20033;-76
2023/06/14 10:02:24;;;;;;;1.45;0.60;;;23.90;47.10;;;;;;5032946;28;20039;-76
2023/06/14 10:05:03;;;;;;;2.30;0.70;;;23.90;47.10;;;;;;5037941;28;20100;-76
2023/06/14 10:07:47;;;;;;;3.70;0.70;;;24.00;47.20;;;;;;5052596;28;20042;-76
2023/06/14 10:10:13;;;;;;;1.60;0.68;;;24.10;47.40;;;;;;5019007;28;20415;-77
2023/06/14 10:12:40;;;;;;;1.73;0.68;;;24.10;47.50;;;;;;5037655;28;20398;-81
2023/06/14 10:15:09;;;;;;;1.52;0.50;;;24.20;47.60;;;;;;5036467;28;20091;-81
2023/06/14 10:17:55;;;;;;;2.90;0.68;;;24.20;47.10;;;;;;5037254;28;20072;-76
2023/06/14 10:20:35;;;;;;;1.67;0.50;;;24.30;46.70;;;;;;5041172;28;20017;-76
2023/06/14 10:23:11;;;;;;;1.40;0.50;;;24.40;46.30;;;;;;5049002;28;20453;-75
2023/06/14 10:25:37;;;;;;;3.90;0.70;;;24.40;46.20;;;;;;5036296;28;20022;-77
2023/06/14 10:28:15;;;;;;;2.35;0.68;;;24.50;46.20;;;;;;5036710;28;20480;-78
2023/06/14 10:31:05;;;;;;;5.28;0.73;;;24.60;46.00;;;;;;5036801;28;20533;-77
2023/06/14 10:33:34;;;;;;;1.98;0.60;;;24.60;45.80;;;;;;5036893;28;20428;-76
2023/06/14 10:36:34;;;;;;;3.15;1.00;;;24.70;45.90;;;;;;5040138;28;20029;-81
2023/06/14 10:39:02;;;;;;;2.22;0.80;;;24.80;45.90;;;;;;5038483;28;20045;-82
2023/06/14 10:41:28;;;;;;;2.30;0.70;;;25.00;45.80;;;;;;5056556;28;20021;-77
2023/06/14 10:44:12;;;;;;;1.60;0.60;;;25.10;45.60;;;;;;5055484;28;20025;-77
2023/06/14 10:46:54;;;;;;;5.32;0.73;;;25.20;45.20;;;;;;5055137;28;20048;-81
2023/06/14 10:49:40;;;;;;;4.13;0.60;;;25.30;45.10;;;;;;5055268;28;20029;-77
2023/06/14 10:52:18;;;;;;;3.08;0.50;;;25.50;44.80;;;;;;5056460;28;20422;-77
2023/06/14 10:55:04;;;;;;;4.55;0.50;;;25.70;44.50;;;;;;5055250;28;20021;-76
2023/06/14 10:57:32;;;;;;;1.33;0.50;;;25.90;44.30;;;;;;5056162;28;20091;-82
2023/06/14 10:59:59;;;;;;;1.17;0.47;;;26.10;44.30;;;;;;5056294;28;20025;-82
2023/06/14 11:02:54;;;;;;;2.17;0.45;;;26.30;44.20;;;;;;5055255;28;20103;-81
2023/06/14 11:05:27;;;;;;;4.85;0.55;;;26.50;44.10;;;;;;5055922;28;20029;-84
2023/06/14 11:07:59;;;;;;;2.50;0.60;;;26.70;43.80;;;;;;5053896;28;20369;-81
2023/06/14 11:10:38;;;;;;;2.25;0.68;;;26.90;43.40;;;;;;5054851;28;20044;-77
2023/06/14 11:13:04;;;;;;;1.25;0.50;;;27.00;43.00;;;;;;5055664;28;20033;-82
2023/06/14 11:15:30;;;;;;;1.05;0.50;;;27.30;42.80;;;;;;5054232;28;20095;-82
2023/06/14 11:17:57;;;;;;;2.08;0.50;;;27.50;42.70;;;;;;5056100;28;20095;-77
2023/06/14 11:20:27;;;;;;;1.27;0.55;;;27.60;42.30;;;;;;5038264;28;20052;-81
2023/06/14 11:22:54;;;;;;;1.90;0.60;;;27.80;41.90;;;;;;5054487;28;20033;-77
2023/06/14 11:25:19;;;;;;;1.25;0.50;;;28.00;41.60;;;;;;5054580;28;20079;-83
2023/06/14 11:27:46;;;;;;;3.08;0.77;;;28.10;41.60;;;;;;5054528;28;20033;-77
2023/06/14 11:30:13;;;;;;;1.55;0.50;;;28.30;42.00;;;;;;5054401;28;20562;-82
2023/06/14 11:32:39;;;;;;;1.00;0.55;;;28.50;41.40;;;;;;5055622;28;20029;-82
2023/06/14 11:35:06;;;;;;;4.90;0.70;;;28.70;41.30;;;;;;5070066;28;20033;-77
2023/06/14 11:37:36;;;;;;;2.28;0.70;;;28.90;41.10;;;;;;5074320;28;20056;-83
2023/06/14 11:40:09;;;;;;;2.17;0.75;;;29.10;41.00;;;;;;5053584;28;20086;-79
2023/06/14 11:42:35;;;;;;;2.00;0.73;;;29.20;40.50;;;;;;5053911;28;20025;-82
2023/06/14 11:45:05;;;;;;;2.30;0.77;;;29.40;40.40;;;;;;5068811;28;20031;-78
2023/06/14 11:47:39;;;;;;;3.72;0.70;;;29.50;39.90;;;;;;5075453;28;20021;-81
2023/06/14 11:50:06;;;;;;;1.17;0.50;;;29.70;39.50;;;;;;5075095;28;20074;-83
2023/06/14 11:52:32;;;;;;;1.90;0.70;;;29.80;39.00;;;;;;5074212;28;20048;-82
2023/06/14 11:54:59;;;;;;;3.17;0.50;;;29.90;38.90;;;;;;5075166;28;20037;-78
2023/06/14 11:57:25;;;;;;;1.83;0.60;;;30.10;38.80;;;;;;5075200;28;20031;-84
2023/06/14 11:59:51;;;;;;;4.68;0.77;;;30.30;38.80;;;;;;5073833;28;20055;-81
2023/06/14 12:02:19;;;;;;;1.75;0.68;;;30.50;38.70;;;;;;5073717;28;20062;-77
2023/06/14 12:04:48;;;;;;;1.63;0.60;;;30.70;38.40;;;;;;5074953;28;20056;-82
2023/06/14 12:07:17;;;;;;;1.30;0.50;;;30.90;38.10;;;;;;5075092;28;20048;-81
2023/06/14 12:10:07;;;;;;;1.75;0.52;;;31.00;38.00;;;;;;5074871;28;20075;-77
2023/06/14 12:12:38;;;;;;;0.98;0.50;;;31.10;37.80;;;;;;5074726;28;20048;-76
2023/06/14 12:15:06;;;;;;;3.45;0.80;;;31.40;37.80;;;;;;5074475;28;20029;-83
2023/06/14 12:17:38;;;;;;;2.95;0.47;;;31.50;37.70;;;;;;5074887;28;20020;-78
2023/06/14 12:20:11;;;;;;;4.17;1.00;;;31.70;37.30;;;;;;5073333;28;20020;-78
2023/06/14 12:22:37;;;;;;;1.08;0.50;;;31.80;36.90;;;;;;5073469;28;20283;-79
2023/06/14 12:25:04;;;;;;;2.25;0.70;;;31.90;36.70;;;;;;5055939;28;20050;-79
2023/06/14 12:27:31;;;;;;;1.67;0.50;;;32.10;36.70;;;;;;5074614;28;20035;-77
2023/06/14 12:30:01;;;;;;;1.33;0.60;;;32.20;36.60;;;;;;5056521;28;20024;-83
2023/06/14 12:32:27;;;;;;;2.00;0.50;;;32.40;36.50;;;;;;5073184;28;20131;-84
2023/06/14 12:34:52;;;;;;;1.80;0.60;;;32.70;36.50;;;;;;5073125;28;20112;-77
2023/06/14 12:37:18;;;;;;;2.17;0.50;;;32.80;36.20;;;;;;5056652;28;20036;-82
2023/06/14 12:39:43;;;;;;;1.08;0.47;;;33.00;36.10;;;;;;5074526;28;20097;-81
2023/06/14 12:42:09;;;;;;;1.77;0.50;;;33.10;36.10;;;;;;5073218;28;20040;-79
2023/06/14 12:44:40;;;;;;;1.25;0.50;;;33.20;36.10;;;;;;5074376;28;20029;-78
2023/06/14 12:47:06;;;;;;;2.88;0.60;;;33.30;36.10;;;;;;5057034;28;20029;-78
2023/06/14 12:49:33;;;;;;;1.05;0.40;;;33.50;36.10;;;;;;5073009;28;20036;-78